Hlavní strana
METAR-TAF:

METAR-TAF

Letiště :

Medicine Hat, Alberta, Kanada

zeměpisná šířka: 50-01N, zeměpisná délka: 110-43W, výška: 717 m

Aktuální stav počasí

Zpráva byla vytvořena před 30 minutami, v 22:00 UTC
Jihozápadní vítr 8 kt
Teplota 23°C
Vlhkost vzduchu 17%
Tlak 1019 hPa
Viditelnost: 48.3 km
Jasno

METAR: CYXH 172200Z 22008KT 30SM SKC 23/M03 A3009 RMK SLP196 DENSITY ALT 3700FT

Čas: 16:30 (22:30 UTC)

Předpověď počasí

Zpráva byla vytvořena před 4 hodinami a 52 minutami, v 17:38 UTC
Předpověď platná od 17 v 18 UTC do 18 v 06 UTC
Jihojihozápadní vítr 12 kt
Viditelnost: 10 km
Jasno

TAF: CYXH 171738Z 1718/1806 21012KT P6SM SKC RMK NXT FCST BY 180000Z

Stav a předpovědi počasí z více než 4 000 letišť (zprávy METAR a TAF).

Červené a žluté tečky na mapě představují dostupné meteorologické stanice.

Když kurzor umístíte na tečku, zobrazí se název stanice.

Pak kliknutím zobrazíte stav a předpověď počasí.

Chcete-li změnit mapu, kliknutím na zelené tlačítko se znaménkem +mapu přiblížíte, kliknutím na zelené tlačítko se znaménkem – mapu oddálíte a kliknutím na zelené šipky přejdete na sousední mapy.


METAR-TAF: